sensor_id;sensor_type;location;lat;lon;timestamp;P1;durP1;ratioP1;P2;durP2;ratioP2
12248;SDS011;6187;50.778;6.142;2022-08-16T00:00:36;2.40;;;2.20;;
12248;SDS011;6187;50.778;6.142;2022-08-16T00:03:05;2.70;;;2.50;;
12248;SDS011;6187;50.778;6.142;2022-08-16T00:05:39;3.83;;;2.40;;
12248;SDS011;6187;50.778;6.142;2022-08-16T00:08:14;2.40;;;2.20;;
12248;SDS011;6187;50.778;6.142;2022-08-16T00:11:04;3.57;;;2.50;;
12248;SDS011;6187;50.778;6.142;2022-08-16T00:13:41;2.83;;;2.63;;
12248;SDS011;6187;50.778;6.142;2022-08-16T00:16:20;3.13;;;2.50;;
12248;SDS011;6187;50.778;6.142;2022-08-16T00:19:09;2.50;;;2.30;;
12248;SDS011;6187;50.778;6.142;2022-08-16T00:21:39;3.60;;;2.57;;
12248;SDS011;6187;50.778;6.142;2022-08-16T00:24:08;2.87;;;2.67;;
12248;SDS011;6187;50.778;6.142;2022-08-16T00:26:40;2.40;;;2.20;;
12248;SDS011;6187;50.778;6.142;2022-08-16T00:29:11;2.50;;;2.30;;
12248;SDS011;6187;50.778;6.142;2022-08-16T00:31:41;3.00;;;2.30;;
12248;SDS011;6187;50.778;6.142;2022-08-16T00:34:24;2.60;;;2.17;;
12248;SDS011;6187;50.778;6.142;2022-08-16T00:37:10;2.90;;;2.70;;
12248;SDS011;6187;50.778;6.142;2022-08-16T00:39:43;2.70;;;2.50;;
12248;SDS011;6187;50.778;6.142;2022-08-16T00:42:14;2.63;;;2.43;;
12248;SDS011;6187;50.778;6.142;2022-08-16T00:45:02;2.80;;;2.47;;
12248;SDS011;6187;50.778;6.142;2022-08-16T00:47:33;2.70;;;2.50;;
12248;SDS011;6187;50.778;6.142;2022-08-16T00:50:03;2.70;;;2.50;;
12248;SDS011;6187;50.778;6.142;2022-08-16T00:52:37;2.93;;;2.63;;
12248;SDS011;6187;50.778;6.142;2022-08-16T00:55:17;3.07;;;2.67;;
12248;SDS011;6187;50.778;6.142;2022-08-16T00:57:50;2.70;;;2.50;;
12248;SDS011;6187;50.778;6.142;2022-08-16T01:00:26;3.80;;;2.43;;
12248;SDS011;6187;50.778;6.142;2022-08-16T01:02:58;2.50;;;2.23;;
12248;SDS011;6187;50.778;6.142;2022-08-16T01:05:29;2.60;;;2.40;;
12248;SDS011;6187;50.778;6.142;2022-08-16T01:07:58;2.73;;;2.53;;
12248;SDS011;6187;50.778;6.142;2022-08-16T01:10:48;2.60;;;2.40;;
12248;SDS011;6187;50.778;6.142;2022-08-16T01:13:19;3.13;;;2.23;;
12248;SDS011;6187;50.778;6.142;2022-08-16T01:15:53;2.80;;;2.60;;
12248;SDS011;6187;50.778;6.142;2022-08-16T01:18:24;2.50;;;2.30;;
12248;SDS011;6187;50.778;6.142;2022-08-16T01:21:13;2.63;;;2.43;;
12248;SDS011;6187;50.778;6.142;2022-08-16T01:23:57;2.57;;;2.37;;
12248;SDS011;6187;50.778;6.142;2022-08-16T01:26:28;2.53;;;2.40;;
12248;SDS011;6187;50.778;6.142;2022-08-16T01:29:02;2.83;;;2.63;;
12248;SDS011;6187;50.778;6.142;2022-08-16T01:31:35;2.73;;;2.53;;
12248;SDS011;6187;50.778;6.142;2022-08-16T01:34:09;2.70;;;2.50;;
12248;SDS011;6187;50.778;6.142;2022-08-16T01:36:56;3.10;;;2.80;;
12248;SDS011;6187;50.778;6.142;2022-08-16T01:39:28;2.83;;;2.63;;
12248;SDS011;6187;50.778;6.142;2022-08-16T01:42:01;2.43;;;2.23;;
12248;SDS011;6187;50.778;6.142;2022-08-16T01:44:38;2.77;;;2.57;;
12248;SDS011;6187;50.778;6.142;2022-08-16T01:47:09;2.60;;;2.40;;
12248;SDS011;6187;50.778;6.142;2022-08-16T01:49:38;2.80;;;2.60;;
12248;SDS011;6187;50.778;6.142;2022-08-16T01:52:27;2.77;;;2.40;;
12248;SDS011;6187;50.778;6.142;2022-08-16T01:54:57;2.50;;;2.30;;
12248;SDS011;6187;50.778;6.142;2022-08-16T01:57:28;2.87;;;2.67;;
12248;SDS011;6187;50.778;6.142;2022-08-16T01:59:57;2.40;;;2.20;;
12248;SDS011;6187;50.778;6.142;2022-08-16T02:02:26;2.83;;;2.63;;
12248;SDS011;6187;50.778;6.142;2022-08-16T02:04:55;2.53;;;2.33;;
12248;SDS011;6187;50.778;6.142;2022-08-16T02:07:26;2.57;;;2.37;;
12248;SDS011;6187;50.778;6.142;2022-08-16T02:09:57;3.43;;;2.43;;
12248;SDS011;6187;50.778;6.142;2022-08-16T02:12:29;3.20;;;2.53;;
12248;SDS011;6187;50.778;6.142;2022-08-16T02:15:17;3.30;;;3.00;;
12248;SDS011;6187;50.778;6.142;2022-08-16T02:17:51;2.97;;;2.73;;
12248;SDS011;6187;50.778;6.142;2022-08-16T02:20:20;2.60;;;2.40;;
12248;SDS011;6187;50.778;6.142;2022-08-16T02:22:53;2.73;;;2.53;;
12248;SDS011;6187;50.778;6.142;2022-08-16T02:25:24;2.70;;;2.50;;
12248;SDS011;6187;50.778;6.142;2022-08-16T02:28:13;2.43;;;2.23;;
12248;SDS011;6187;50.778;6.142;2022-08-16T02:30:44;2.43;;;2.23;;
12248;SDS011;6187;50.778;6.142;2022-08-16T02:33:17;2.40;;;2.20;;
12248;SDS011;6187;50.778;6.142;2022-08-16T02:36:06;2.73;;;2.50;;
12248;SDS011;6187;50.778;6.142;2022-08-16T02:38:40;3.30;;;3.00;;
12248;SDS011;6187;50.778;6.142;2022-08-16T02:41:10;2.90;;;2.70;;
12248;SDS011;6187;50.778;6.142;2022-08-16T02:43:39;3.13;;;2.83;;
12248;SDS011;6187;50.778;6.142;2022-08-16T02:46:08;2.70;;;2.50;;
12248;SDS011;6187;50.778;6.142;2022-08-16T02:48:37;2.77;;;2.57;;
12248;SDS011;6187;50.778;6.142;2022-08-16T02:51:14;2.63;;;2.43;;
12248;SDS011;6187;50.778;6.142;2022-08-16T02:53:45;2.60;;;2.40;;
12248;SDS011;6187;50.778;6.142;2022-08-16T02:56:16;2.93;;;2.73;;
12248;SDS011;6187;50.778;6.142;2022-08-16T02:58:47;3.00;;;2.80;;
12248;SDS011;6187;50.778;6.142;2022-08-16T03:01:17;2.80;;;2.60;;
12248;SDS011;6187;50.778;6.142;2022-08-16T03:03:59;2.47;;;2.30;;
12248;SDS011;6187;50.778;6.142;2022-08-16T03:06:48;2.53;;;2.33;;
12248;SDS011;6187;50.778;6.142;2022-08-16T03:09:22;2.70;;;2.50;;
12248;SDS011;6187;50.778;6.142;2022-08-16T03:11:59;2.67;;;2.47;;
12248;SDS011;6187;50.778;6.142;2022-08-16T03:14:28;2.90;;;2.70;;
12248;SDS011;6187;50.778;6.142;2022-08-16T03:16:58;2.90;;;2.70;;
12248;SDS011;6187;50.778;6.142;2022-08-16T03:19:28;3.10;;;2.90;;
12248;SDS011;6187;50.778;6.142;2022-08-16T03:22:17;3.10;;;2.83;;
12248;SDS011;6187;50.778;6.142;2022-08-16T03:24:56;2.90;;;2.70;;
12248;SDS011;6187;50.778;6.142;2022-08-16T03:27:28;3.23;;;2.70;;
12248;SDS011;6187;50.778;6.142;2022-08-16T03:29:58;2.63;;;2.43;;
12248;SDS011;6187;50.778;6.142;2022-08-16T03:32:43;2.77;;;2.57;;
12248;SDS011;6187;50.778;6.142;2022-08-16T03:35:13;2.80;;;2.60;;
12248;SDS011;6187;50.778;6.142;2022-08-16T03:37:44;3.00;;;2.80;;
12248;SDS011;6187;50.778;6.142;2022-08-16T03:40:29;3.20;;;2.63;;
12248;SDS011;6187;50.778;6.142;2022-08-16T03:43:00;2.93;;;2.73;;
12248;SDS011;6187;50.778;6.142;2022-08-16T03:45:47;2.97;;;2.77;;
12248;SDS011;6187;50.778;6.142;2022-08-16T03:48:19;2.87;;;2.67;;
12248;SDS011;6187;50.778;6.142;2022-08-16T03:51:07;2.97;;;2.77;;
12248;SDS011;6187;50.778;6.142;2022-08-16T03:53:39;2.60;;;2.40;;
12248;SDS011;6187;50.778;6.142;2022-08-16T03:56:08;2.63;;;2.43;;
12248;SDS011;6187;50.778;6.142;2022-08-16T03:58:48;2.87;;;2.67;;
12248;SDS011;6187;50.778;6.142;2022-08-16T04:01:18;3.10;;;2.90;;
12248;SDS011;6187;50.778;6.142;2022-08-16T04:03:47;2.83;;;2.63;;
12248;SDS011;6187;50.778;6.142;2022-08-16T04:06:18;2.80;;;2.60;;
12248;SDS011;6187;50.778;6.142;2022-08-16T04:08:47;2.73;;;2.37;;
12248;SDS011;6187;50.778;6.142;2022-08-16T04:11:16;2.73;;;2.53;;
12248;SDS011;6187;50.778;6.142;2022-08-16T04:13:50;2.60;;;2.40;;
12248;SDS011;6187;50.778;6.142;2022-08-16T04:16:39;2.90;;;2.70;;
12248;SDS011;6187;50.778;6.142;2022-08-16T04:19:08;2.90;;;2.70;;
12248;SDS011;6187;50.778;6.142;2022-08-16T04:21:38;3.07;;;2.87;;
12248;SDS011;6187;50.778;6.142;2022-08-16T04:24:13;2.90;;;2.70;;
12248;SDS011;6187;50.778;6.142;2022-08-16T04:26:42;2.83;;;2.63;;
12248;SDS011;6187;50.778;6.142;2022-08-16T04:29:13;2.90;;;2.70;;
12248;SDS011;6187;50.778;6.142;2022-08-16T04:31:50;3.30;;;3.10;;
12248;SDS011;6187;50.778;6.142;2022-08-16T04:34:24;2.93;;;2.70;;
12248;SDS011;6187;50.778;6.142;2022-08-16T04:36:53;2.60;;;2.40;;
12248;SDS011;6187;50.778;6.142;2022-08-16T04:39:23;2.67;;;2.47;;
12248;SDS011;6187;50.778;6.142;2022-08-16T04:42:13;3.10;;;2.80;;
12248;SDS011;6187;50.778;6.142;2022-08-16T04:44:43;3.27;;;2.50;;
12248;SDS011;6187;50.778;6.142;2022-08-16T04:47:22;2.90;;;2.70;;
12248;SDS011;6187;50.778;6.142;2022-08-16T04:49:57;3.10;;;2.90;;
12248;SDS011;6187;50.778;6.142;2022-08-16T04:52:27;3.27;;;2.77;;
12248;SDS011;6187;50.778;6.142;2022-08-16T04:55:02;3.17;;;2.97;;
12248;SDS011;6187;50.778;6.142;2022-08-16T04:57:31;3.23;;;2.90;;
12248;SDS011;6187;50.778;6.142;2022-08-16T05:00:02;3.10;;;2.90;;
12248;SDS011;6187;50.778;6.142;2022-08-16T05:02:52;3.63;;;3.40;;
12248;SDS011;6187;50.778;6.142;2022-08-16T05:05:24;3.63;;;3.40;;
12248;SDS011;6187;50.778;6.142;2022-08-16T05:08:02;3.20;;;3.00;;
12248;SDS011;6187;50.778;6.142;2022-08-16T05:10:51;3.70;;;2.70;;
12248;SDS011;6187;50.778;6.142;2022-08-16T05:13:25;4.57;;;3.00;;
12248;SDS011;6187;50.778;6.142;2022-08-16T05:16:09;2.90;;;2.70;;
12248;SDS011;6187;50.778;6.142;2022-08-16T05:18:46;3.30;;;3.00;;
12248;SDS011;6187;50.778;6.142;2022-08-16T05:21:15;3.10;;;2.90;;
12248;SDS011;6187;50.778;6.142;2022-08-16T05:23:47;3.30;;;3.10;;
12248;SDS011;6187;50.778;6.142;2022-08-16T05:26:22;3.30;;;2.93;;
12248;SDS011;6187;50.778;6.142;2022-08-16T05:28:54;3.07;;;2.87;;
12248;SDS011;6187;50.778;6.142;2022-08-16T05:31:24;3.53;;;3.23;;
12248;SDS011;6187;50.778;6.142;2022-08-16T05:33:56;3.67;;;3.33;;
12248;SDS011;6187;50.778;6.142;2022-08-16T05:36:25;3.17;;;2.97;;
12248;SDS011;6187;50.778;6.142;2022-08-16T05:39:02;3.33;;;3.13;;
12248;SDS011;6187;50.778;6.142;2022-08-16T05:41:31;3.10;;;2.90;;
12248;SDS011;6187;50.778;6.142;2022-08-16T05:44:12;2.80;;;2.60;;
12248;SDS011;6187;50.778;6.142;2022-08-16T05:46:53;3.17;;;2.97;;
12248;SDS011;6187;50.778;6.142;2022-08-16T05:49:22;4.13;;;3.57;;
12248;SDS011;6187;50.778;6.142;2022-08-16T05:52:05;2.83;;;2.63;;
12248;SDS011;6187;50.778;6.142;2022-08-16T05:54:37;3.47;;;3.20;;
12248;SDS011;6187;50.778;6.142;2022-08-16T05:57:13;3.30;;;3.00;;
12248;SDS011;6187;50.778;6.142;2022-08-16T05:59:42;3.30;;;3.00;;
12248;SDS011;6187;50.778;6.142;2022-08-16T06:02:26;3.40;;;3.10;;
12248;SDS011;6187;50.778;6.142;2022-08-16T06:04:59;3.53;;;3.07;;
12248;SDS011;6187;50.778;6.142;2022-08-16T06:07:29;3.47;;;3.10;;
12248;SDS011;6187;50.778;6.142;2022-08-16T06:09:59;3.37;;;3.07;;
12248;SDS011;6187;50.778;6.142;2022-08-16T06:12:28;3.33;;;3.03;;
12248;SDS011;6187;50.778;6.142;2022-08-16T06:14:57;3.20;;;2.90;;
12248;SDS011;6187;50.778;6.142;2022-08-16T06:17:35;3.80;;;3.20;;
12248;SDS011;6187;50.778;6.142;2022-08-16T06:20:11;3.33;;;3.03;;
12248;SDS011;6187;50.778;6.142;2022-08-16T06:22:44;3.10;;;2.80;;
12248;SDS011;6187;50.778;6.142;2022-08-16T06:25:29;3.20;;;2.90;;
12248;SDS011;6187;50.778;6.142;2022-08-16T06:28:05;2.90;;;2.70;;
12248;SDS011;6187;50.778;6.142;2022-08-16T06:30:35;2.97;;;2.67;;
12248;SDS011;6187;50.778;6.142;2022-08-16T06:33:11;3.30;;;3.10;;
12248;SDS011;6187;50.778;6.142;2022-08-16T06:35:48;3.23;;;2.93;;
12248;SDS011;6187;50.778;6.142;2022-08-16T06:38:25;3.90;;;3.60;;
12248;SDS011;6187;50.778;6.142;2022-08-16T06:41:00;3.40;;;3.20;;
12248;SDS011;6187;50.778;6.142;2022-08-16T06:43:29;3.50;;;3.20;;
12248;SDS011;6187;50.778;6.142;2022-08-16T06:45:59;2.90;;;2.70;;
12248;SDS011;6187;50.778;6.142;2022-08-16T06:48:31;3.40;;;2.70;;
12248;SDS011;6187;50.778;6.142;2022-08-16T06:51:00;3.03;;;2.77;;
12248;SDS011;6187;50.778;6.142;2022-08-16T06:53:29;3.50;;;3.17;;
12248;SDS011;6187;50.778;6.142;2022-08-16T06:56:02;4.00;;;3.20;;
12248;SDS011;6187;50.778;6.142;2022-08-16T06:58:40;2.90;;;2.70;;
12248;SDS011;6187;50.778;6.142;2022-08-16T07:01:10;3.23;;;2.90;;
12248;SDS011;6187;50.778;6.142;2022-08-16T07:03:42;3.40;;;3.10;;
12248;SDS011;6187;50.778;6.142;2022-08-16T07:06:23;3.50;;;2.80;;
12248;SDS011;6187;50.778;6.142;2022-08-16T07:08:53;3.57;;;3.37;;
12248;SDS011;6187;50.778;6.142;2022-08-16T07:11:22;4.23;;;3.27;;
12248;SDS011;6187;50.778;6.142;2022-08-16T07:14:12;3.33;;;3.03;;
12248;SDS011;6187;50.778;6.142;2022-08-16T07:16:52;3.50;;;3.20;;
12248;SDS011;6187;50.778;6.142;2022-08-16T07:19:25;4.83;;;3.30;;
12248;SDS011;6187;50.778;6.142;2022-08-16T07:22:17;3.60;;;3.13;;
12248;SDS011;6187;50.778;6.142;2022-08-16T07:25:06;3.63;;;2.83;;
12248;SDS011;6187;50.778;6.142;2022-08-16T07:27:35;3.33;;;3.00;;
12248;SDS011;6187;50.778;6.142;2022-08-16T07:30:06;4.17;;;3.30;;
12248;SDS011;6187;50.778;6.142;2022-08-16T07:32:55;3.60;;;3.30;;
12248;SDS011;6187;50.778;6.142;2022-08-16T07:35:25;3.93;;;3.20;;
12248;SDS011;6187;50.778;6.142;2022-08-16T07:37:54;4.30;;;3.30;;
12248;SDS011;6187;50.778;6.142;2022-08-16T07:40:24;4.70;;;3.70;;
12248;SDS011;6187;50.778;6.142;2022-08-16T07:43:13;3.50;;;3.20;;
12248;SDS011;6187;50.778;6.142;2022-08-16T07:45:42;3.63;;;3.30;;
12248;SDS011;6187;50.778;6.142;2022-08-16T07:48:18;3.73;;;3.43;;
12248;SDS011;6187;50.778;6.142;2022-08-16T07:50:49;3.60;;;3.30;;
12248;SDS011;6187;50.778;6.142;2022-08-16T07:53:25;4.07;;;3.00;;
12248;SDS011;6187;50.778;6.142;2022-08-16T07:55:54;5.17;;;3.33;;
12248;SDS011;6187;50.778;6.142;2022-08-16T07:58:23;3.80;;;3.50;;
12248;SDS011;6187;50.778;6.142;2022-08-16T08:00:59;3.97;;;3.67;;
12248;SDS011;6187;50.778;6.142;2022-08-16T08:03:36;3.43;;;3.13;;
12248;SDS011;6187;50.778;6.142;2022-08-16T08:06:09;3.60;;;3.20;;
12248;SDS011;6187;50.778;6.142;2022-08-16T08:08:41;3.63;;;3.33;;
12248;SDS011;6187;50.778;6.142;2022-08-16T08:11:18;3.67;;;3.37;;
12248;SDS011;6187;50.778;6.142;2022-08-16T08:13:49;4.03;;;3.73;;
12248;SDS011;6187;50.778;6.142;2022-08-16T08:16:19;3.57;;;3.30;;
12248;SDS011;6187;50.778;6.142;2022-08-16T08:18:57;3.70;;;3.40;;
12248;SDS011;6187;50.778;6.142;2022-08-16T08:21:30;4.67;;;3.67;;
12248;SDS011;6187;50.778;6.142;2022-08-16T08:24:19;3.93;;;3.63;;
12248;SDS011;6187;50.778;6.142;2022-08-16T08:26:58;5.53;;;3.83;;
12248;SDS011;6187;50.778;6.142;2022-08-16T08:29:28;3.60;;;3.30;;
12248;SDS011;6187;50.778;6.142;2022-08-16T08:32:06;3.93;;;3.60;;
12248;SDS011;6187;50.778;6.142;2022-08-16T08:34:54;4.03;;;3.70;;
12248;SDS011;6187;50.778;6.142;2022-08-16T08:37:30;5.67;;;4.00;;
12248;SDS011;6187;50.778;6.142;2022-08-16T08:40:19;3.53;;;3.23;;
12248;SDS011;6187;50.778;6.142;2022-08-16T08:42:53;3.77;;;3.30;;
12248;SDS011;6187;50.778;6.142;2022-08-16T08:45:27;3.90;;;3.47;;
12248;SDS011;6187;50.778;6.142;2022-08-16T08:48:14;3.70;;;3.40;;
12248;SDS011;6187;50.778;6.142;2022-08-16T08:51:01;3.87;;;3.57;;
12248;SDS011;6187;50.778;6.142;2022-08-16T08:53:31;3.60;;;3.30;;
12248;SDS011;6187;50.778;6.142;2022-08-16T08:56:00;3.90;;;3.60;;
12248;SDS011;6187;50.778;6.142;2022-08-16T08:58:49;3.53;;;3.23;;
12248;SDS011;6187;50.778;6.142;2022-08-16T09:01:25;3.97;;;3.63;;
12248;SDS011;6187;50.778;6.142;2022-08-16T09:04:02;3.53;;;3.23;;
12248;SDS011;6187;50.778;6.142;2022-08-16T09:06:32;3.50;;;3.20;;
12248;SDS011;6187;50.778;6.142;2022-08-16T09:09:02;5.30;;;3.40;;
12248;SDS011;6187;50.778;6.142;2022-08-16T09:11:32;3.80;;;3.50;;
12248;SDS011;6187;50.778;6.142;2022-08-16T09:14:07;3.80;;;3.50;;
12248;SDS011;6187;50.778;6.142;2022-08-16T09:16:50;3.90;;;3.60;;
12248;SDS011;6187;50.778;6.142;2022-08-16T09:19:31;4.63;;;3.20;;
12248;SDS011;6187;50.778;6.142;2022-08-16T09:22:00;3.30;;;3.10;;
12248;SDS011;6187;50.778;6.142;2022-08-16T09:24:31;4.50;;;3.37;;
12248;SDS011;6187;50.778;6.142;2022-08-16T09:27:19;3.83;;;3.53;;
12248;SDS011;6187;50.778;6.142;2022-08-16T09:29:50;3.67;;;3.30;;
12248;SDS011;6187;50.778;6.142;2022-08-16T09:32:26;3.67;;;3.37;;
12248;SDS011;6187;50.778;6.142;2022-08-16T09:34:57;4.23;;;3.40;;
12248;SDS011;6187;50.778;6.142;2022-08-16T09:37:27;3.67;;;3.33;;
12248;SDS011;6187;50.778;6.142;2022-08-16T09:40:04;3.53;;;3.23;;
12248;SDS011;6187;50.778;6.142;2022-08-16T09:42:54;4.07;;;3.60;;
12248;SDS011;6187;50.778;6.142;2022-08-16T09:45:25;3.40;;;3.10;;
12248;SDS011;6187;50.778;6.142;2022-08-16T09:47:55;3.30;;;3.00;;
12248;SDS011;6187;50.778;6.142;2022-08-16T09:50:24;3.83;;;3.20;;
12248;SDS011;6187;50.778;6.142;2022-08-16T09:53:05;3.00;;;2.70;;
12248;SDS011;6187;50.778;6.142;2022-08-16T09:55:43;3.22;;;3.03;;
12248;SDS011;6187;50.778;6.142;2022-08-16T09:58:15;3.17;;;2.97;;
12248;SDS011;6187;50.778;6.142;2022-08-16T10:01:05;3.40;;;3.10;;
12248;SDS011;6187;50.778;6.142;2022-08-16T10:03:37;3.45;;;2.88;;
12248;SDS011;6187;50.778;6.142;2022-08-16T10:06:26;4.80;;;2.80;;
12248;SDS011;6187;50.778;6.142;2022-08-16T10:08:59;3.15;;;2.78;;
12248;SDS011;6187;50.778;6.142;2022-08-16T10:11:33;4.57;;;2.80;;
12248;SDS011;6187;50.778;6.142;2022-08-16T10:14:20;3.38;;;2.60;;
12248;SDS011;6187;50.778;6.142;2022-08-16T10:17:01;3.85;;;2.67;;
12248;SDS011;6187;50.778;6.142;2022-08-16T10:19:30;3.00;;;2.70;;
12248;SDS011;6187;50.778;6.142;2022-08-16T10:21:59;2.60;;;2.33;;
12248;SDS011;6187;50.778;6.142;2022-08-16T10:24:31;3.55;;;2.50;;
12248;SDS011;6187;50.778;6.142;2022-08-16T10:27:01;2.63;;;2.30;;
12248;SDS011;6187;50.778;6.142;2022-08-16T10:29:49;3.53;;;2.45;;
12248;SDS011;6187;50.778;6.142;2022-08-16T10:32:28;3.97;;;2.40;;
12248;SDS011;6187;50.778;6.142;2022-08-16T10:34:58;3.85;;;2.88;;
12248;SDS011;6187;50.778;6.142;2022-08-16T10:37:28;2.88;;;2.58;;
12248;SDS011;6187;50.778;6.142;2022-08-16T10:40:03;2.58;;;2.33;;
12248;SDS011;6187;50.778;6.142;2022-08-16T10:42:53;2.58;;;2.38;;
12248;SDS011;6187;50.778;6.142;2022-08-16T10:45:21;2.97;;;2.40;;
12248;SDS011;6187;50.778;6.142;2022-08-16T10:47:53;3.13;;;2.55;;
12248;SDS011;6187;50.778;6.142;2022-08-16T10:50:29;3.42;;;3.13;;
12248;SDS011;6187;50.778;6.142;2022-08-16T10:52:58;4.70;;;3.13;;
12248;SDS011;6187;50.778;6.142;2022-08-16T10:55:33;4.28;;;2.35;;
12248;SDS011;6187;50.778;6.142;2022-08-16T10:58:12;2.95;;;2.75;;
12248;SDS011;6187;50.778;6.142;2022-08-16T11:00:43;2.60;;;2.40;;
12248;SDS011;6187;50.778;6.142;2022-08-16T11:03:12;3.58;;;2.58;;
12248;SDS011;6187;50.778;6.142;2022-08-16T11:06:02;3.15;;;2.45;;
12248;SDS011;6187;50.778;6.142;2022-08-16T11:08:37;5.30;;;2.70;;
12248;SDS011;6187;50.778;6.142;2022-08-16T11:11:11;2.90;;;2.53;;
12248;SDS011;6187;50.778;6.142;2022-08-16T11:13:46;3.30;;;2.72;;
12248;SDS011;6187;50.778;6.142;2022-08-16T11:16:37;3.90;;;2.78;;
12248;SDS011;6187;50.778;6.142;2022-08-16T11:19:25;4.10;;;2.67;;
12248;SDS011;6187;50.778;6.142;2022-08-16T11:21:56;3.13;;;2.80;;
12248;SDS011;6187;50.778;6.142;2022-08-16T11:24:45;4.80;;;2.88;;
12248;SDS011;6187;50.778;6.142;2022-08-16T11:27:34;4.38;;;2.88;;
12248;SDS011;6187;50.778;6.142;2022-08-16T11:30:04;2.92;;;2.63;;
12248;SDS011;6187;50.778;6.142;2022-08-16T11:32:34;4.25;;;2.50;;
12248;SDS011;6187;50.778;6.142;2022-08-16T11:35:04;2.92;;;2.63;;
12248;SDS011;6187;50.778;6.142;2022-08-16T11:37:40;3.97;;;2.40;;
12248;SDS011;6187;50.778;6.142;2022-08-16T11:40:29;3.05;;;2.60;;
12248;SDS011;6187;50.778;6.142;2022-08-16T11:43:01;4.85;;;2.95;;
12248;SDS011;6187;50.778;6.142;2022-08-16T11:45:33;3.00;;;2.70;;
12248;SDS011;6187;50.778;6.142;2022-08-16T11:48:02;5.63;;;2.78;;
12248;SDS011;6187;50.778;6.142;2022-08-16T11:50:31;3.63;;;2.50;;
12248;SDS011;6187;50.778;6.142;2022-08-16T11:53:01;3.05;;;2.83;;
12248;SDS011;6187;50.778;6.142;2022-08-16T11:55:30;3.72;;;2.75;;
12248;SDS011;6187;50.778;6.142;2022-08-16T11:57:58;3.20;;;2.47;;
12248;SDS011;6187;50.778;6.142;2022-08-16T12:00:29;2.50;;;2.30;;
12248;SDS011;6187;50.778;6.142;2022-08-16T12:03:19;3.83;;;2.88;;
12248;SDS011;6187;50.778;6.142;2022-08-16T12:06:03;4.72;;;2.55;;
12248;SDS011;6187;50.778;6.142;2022-08-16T12:08:37;2.60;;;2.40;;
12248;SDS011;6187;50.778;6.142;2022-08-16T12:11:06;5.10;;;2.72;;
12248;SDS011;6187;50.778;6.142;2022-08-16T12:13:35;4.93;;;2.88;;
12248;SDS011;6187;50.778;6.142;2022-08-16T12:16:04;4.05;;;2.47;;
12248;SDS011;6187;50.778;6.142;2022-08-16T12:18:36;2.60;;;2.40;;
12248;SDS011;6187;50.778;6.142;2022-08-16T12:21:06;2.70;;;2.50;;
12248;SDS011;6187;50.778;6.142;2022-08-16T12:23:35;3.55;;;2.80;;
12248;SDS011;6187;50.778;6.142;2022-08-16T12:26:05;4.50;;;2.72;;
12248;SDS011;6187;50.778;6.142;2022-08-16T12:28:36;3.72;;;2.55;;
12248;SDS011;6187;50.778;6.142;2022-08-16T12:31:23;2.90;;;2.25;;
12248;SDS011;6187;50.778;6.142;2022-08-16T12:33:54;2.95;;;2.40;;
12248;SDS011;6187;50.778;6.142;2022-08-16T12:36:24;2.65;;;2.40;;
12248;SDS011;6187;50.778;6.142;2022-08-16T12:38:56;3.15;;;2.63;;
12248;SDS011;6187;50.778;6.142;2022-08-16T12:41:25;2.65;;;2.45;;
12248;SDS011;6187;50.778;6.142;2022-08-16T12:43:58;2.72;;;2.35;;
12248;SDS011;6187;50.778;6.142;2022-08-16T12:46:29;2.53;;;2.33;;
12248;SDS011;6187;50.778;6.142;2022-08-16T12:49:00;3.20;;;2.58;;
12248;SDS011;6187;50.778;6.142;2022-08-16T12:51:29;3.15;;;2.60;;
12248;SDS011;6187;50.778;6.142;2022-08-16T12:54:18;3.42;;;2.67;;
12248;SDS011;6187;50.778;6.142;2022-08-16T12:56:47;2.75;;;2.53;;
12248;SDS011;6187;50.778;6.142;2022-08-16T12:59:16;2.53;;;2.30;;
12248;SDS011;6187;50.778;6.142;2022-08-16T13:01:46;2.80;;;2.35;;
12248;SDS011;6187;50.778;6.142;2022-08-16T13:04:26;2.22;;;2.03;;
12248;SDS011;6187;50.778;6.142;2022-08-16T13:06:59;2.50;;;2.20;;
12248;SDS011;6187;50.778;6.142;2022-08-16T13:09:28;2.80;;;2.50;;
12248;SDS011;6187;50.778;6.142;2022-08-16T13:12:09;2.55;;;2.35;;
12248;SDS011;6187;50.778;6.142;2022-08-16T13:14:46;3.22;;;2.25;;
12248;SDS011;6187;50.778;6.142;2022-08-16T13:17:16;2.40;;;2.20;;
12248;SDS011;6187;50.778;6.142;2022-08-16T13:19:48;2.67;;;2.47;;
12248;SDS011;6187;50.778;6.142;2022-08-16T13:22:35;4.47;;;2.38;;
12248;SDS011;6187;50.778;6.142;2022-08-16T13:25:09;2.80;;;2.60;;
12248;SDS011;6187;50.778;6.142;2022-08-16T13:27:44;2.42;;;2.22;;
12248;SDS011;6187;50.778;6.142;2022-08-16T13:30:33;3.83;;;2.47;;
12248;SDS011;6187;50.778;6.142;2022-08-16T13:33:08;2.47;;;2.08;;
12248;SDS011;6187;50.778;6.142;2022-08-16T13:35:43;3.22;;;2.30;;
12248;SDS011;6187;50.778;6.142;2022-08-16T13:38:21;2.72;;;2.53;;
12248;SDS011;6187;50.778;6.142;2022-08-16T13:40:52;2.70;;;2.50;;
12248;SDS011;6187;50.778;6.142;2022-08-16T13:43:22;3.35;;;2.10;;
12248;SDS011;6187;50.778;6.142;2022-08-16T13:45:52;2.78;;;2.30;;
12248;SDS011;6187;50.778;6.142;2022-08-16T13:48:21;3.42;;;2.10;;
12248;SDS011;6187;50.778;6.142;2022-08-16T13:50:53;2.50;;;2.30;;
12248;SDS011;6187;50.778;6.142;2022-08-16T13:53:28;3.78;;;2.60;;
12248;SDS011;6187;50.778;6.142;2022-08-16T13:55:58;3.42;;;2.60;;
12248;SDS011;6187;50.778;6.142;2022-08-16T13:58:26;2.53;;;2.13;;
12248;SDS011;6187;50.778;6.142;2022-08-16T14:01:14;2.95;;;2.20;;
12248;SDS011;6187;50.778;6.142;2022-08-16T14:03:43;3.95;;;2.40;;
12248;SDS011;6187;50.778;6.142;2022-08-16T14:06:13;2.58;;;2.38;;
12248;SDS011;6187;50.778;6.142;2022-08-16T14:08:44;2.40;;;2.20;;
12248;SDS011;6187;50.778;6.142;2022-08-16T14:11:24;2.45;;;2.25;;
12248;SDS011;6187;50.778;6.142;2022-08-16T14:13:54;2.28;;;2.08;;
12248;SDS011;6187;50.778;6.142;2022-08-16T14:16:24;5.00;;;2.35;;
12248;SDS011;6187;50.778;6.142;2022-08-16T14:19:00;2.63;;;2.42;;
12248;SDS011;6187;50.778;6.142;2022-08-16T14:21:30;2.88;;;2.55;;
12248;SDS011;6187;50.778;6.142;2022-08-16T14:24:02;4.05;;;2.30;;
12248;SDS011;6187;50.778;6.142;2022-08-16T14:26:48;3.05;;;2.35;;
12248;SDS011;6187;50.778;6.142;2022-08-16T14:29:18;3.13;;;2.35;;
12248;SDS011;6187;50.778;6.142;2022-08-16T14:31:48;3.33;;;2.70;;
12248;SDS011;6187;50.778;6.142;2022-08-16T14:34:19;2.70;;;2.50;;
12248;SDS011;6187;50.778;6.142;2022-08-16T14:36:52;4.75;;;2.75;;
12248;SDS011;6187;50.778;6.142;2022-08-16T14:39:21;2.58;;;2.30;;
12248;SDS011;6187;50.778;6.142;2022-08-16T14:41:50;3.30;;;2.40;;
12248;SDS011;6187;50.778;6.142;2022-08-16T14:44:21;2.70;;;2.50;;
12248;SDS011;6187;50.778;6.142;2022-08-16T14:46:53;2.75;;;2.55;;
12248;SDS011;6187;50.778;6.142;2022-08-16T14:49:22;2.72;;;2.53;;
12248;SDS011;6187;50.778;6.142;2022-08-16T14:51:51;2.47;;;2.17;;
12248;SDS011;6187;50.778;6.142;2022-08-16T14:54:21;2.45;;;2.25;;
12248;SDS011;6187;50.778;6.142;2022-08-16T14:56:56;3.10;;;2.80;;
12248;SDS011;6187;50.778;6.142;2022-08-16T14:59:24;4.50;;;2.85;;
12248;SDS011;6187;50.778;6.142;2022-08-16T15:01:55;3.25;;;2.83;;
12248;SDS011;6187;50.778;6.142;2022-08-16T15:04:26;2.85;;;2.60;;
12248;SDS011;6187;50.778;6.142;2022-08-16T15:07:14;4.78;;;2.90;;
12248;SDS011;6187;50.778;6.142;2022-08-16T15:09:48;3.20;;;2.90;;
12248;SDS011;6187;50.778;6.142;2022-08-16T15:12:27;3.05;;;2.60;;
12248;SDS011;6187;50.778;6.142;2022-08-16T15:15:00;3.70;;;2.65;;
12248;SDS011;6187;50.778;6.142;2022-08-16T15:17:38;2.80;;;2.55;;
12248;SDS011;6187;50.778;6.142;2022-08-16T15:20:19;3.17;;;2.83;;
12248;SDS011;6187;50.778;6.142;2022-08-16T15:22:52;3.10;;;2.75;;
12248;SDS011;6187;50.778;6.142;2022-08-16T15:25:23;3.13;;;2.70;;
12248;SDS011;6187;50.778;6.142;2022-08-16T15:27:55;4.10;;;2.78;;
12248;SDS011;6187;50.778;6.142;2022-08-16T15:30:27;2.97;;;2.60;;
12248;SDS011;6187;50.778;6.142;2022-08-16T15:33:17;3.13;;;2.78;;
12248;SDS011;6187;50.778;6.142;2022-08-16T15:35:48;3.22;;;2.60;;
12248;SDS011;6187;50.778;6.142;2022-08-16T15:38:21;3.88;;;3.08;;
12248;SDS011;6187;50.778;6.142;2022-08-16T15:41:11;2.97;;;2.67;;
12248;SDS011;6187;50.778;6.142;2022-08-16T15:43:54;3.00;;;2.70;;
12248;SDS011;6187;50.778;6.142;2022-08-16T15:46:35;2.75;;;2.50;;